Time;durP1;ratioP1;P1;durP2;ratioP2;P2;SDS_P1;SDS_P2;PMS_P1;PMS_P2;Temp;Humidity;BMP_temperature;BMP_pressure;BME280_temperature;BME280_humidity;BME280_pressure;Samples;Min_cycle;Max_cycle;Signal;HPM_P1;HPM_P2
2023/01/02 00:00:10;;;;;;;6.93;4.70;;;;;;;11.74;70.94;100102.00;10469616;28;20121;-82
2023/01/02 00:05:19;;;;;;;8.50;5.43;;;;;;;11.82;70.97;100092.00;10473899;28;20029;-81
2023/01/02 00:10:21;;;;;;;10.20;5.20;;;;;;;11.78;71.11;100083.38;10473721;28;20029;-82
2023/01/02 00:15:22;;;;;;;9.02;5.60;;;;;;;11.87;70.96;100076.97;10474313;28;20052;-82
2023/01/02 00:20:24;;;;;;;5.85;5.18;;;;;;;11.82;71.21;100081.47;10457620;28;20106;-83
2023/01/02 00:25:26;;;;;;;6.28;5.68;;;;;;;11.86;71.12;100084.00;10474599;28;20022;-83
2023/01/02 00:30:28;;;;;;;7.05;5.53;;;;;;;12.00;70.95;100069.47;10474242;28;20055;-83
2023/01/02 00:35:38;;;;;;;7.38;5.72;;;;;;;11.84;71.34;100072.66;10473646;28;20025;-82
2023/01/02 00:40:40;;;;;;;6.75;6.05;;;;;;;11.67;71.87;100059.19;10473150;28;20085;-83
2023/01/02 00:45:42;;;;;;;8.50;6.28;;;;;;;12.01;71.53;100056.22;10473109;28;20045;-84
2023/01/02 00:50:44;;;;;;;11.52;6.45;;;;;;;12.06;70.95;100046.38;10470500;28;20041;-84
2023/01/02 00:55:46;;;;;;;7.43;6.25;;;;;;;12.07;71.24;100044.59;10440307;28;20056;-84
2023/01/02 01:00:49;;;;;;;10.73;6.25;;;;;;;12.06;70.78;100046.38;10463409;28;20033;-84
2023/01/02 01:05:50;;;;;;;7.90;5.45;;;;;;;12.20;69.93;100047.63;10470068;28;20052;-83
2023/01/02 01:10:52;;;;;;;6.60;5.90;;;;;;;12.37;68.88;100047.84;10470475;28;20056;-83
2023/01/02 01:15:54;;;;;;;9.90;6.70;;;;;;;12.47;67.95;100046.56;10472279;28;20176;-83
2023/01/02 01:20:55;;;;;;;7.55;6.03;;;;;;;12.56;67.25;100045.34;10472300;28;20045;-82
2023/01/02 01:25:57;;;;;;;6.15;5.55;;;;;;;12.67;66.71;100035.22;10471797;28;20064;-82
2023/01/02 01:31:07;;;;;;;6.20;5.60;;;;;;;12.60;66.91;100033.75;10470776;28;20050;-81
2023/01/02 01:36:12;;;;;;;7.85;5.57;;;;;;;12.46;66.91;100029.03;10471005;28;20022;-82
2023/01/02 01:41:21;;;;;;;5.93;5.25;;;;;;;12.61;66.41;100022.28;10470730;28;20026;-83
2023/01/02 01:46:37;;;;;;;4.40;3.70;;;;;;;12.46;65.08;100015.00;10471317;28;20053;-82
2023/01/02 01:52:07;;;;;;;4.25;2.22;;;;;;;12.91;60.88;100008.75;10470332;28;20025;-83
2023/01/02 01:57:18;;;;;;;4.32;1.92;;;;;;;13.49;57.67;100028.25;10465126;28;20049;-82
2023/01/02 02:02:22;;;;;;;2.45;1.63;;;;;;;13.88;55.52;100017.72;10469065;28;20041;-84
2023/01/02 02:07:24;;;;;;;3.33;1.98;;;;;;;14.14;54.36;100026.22;10470111;28;20098;-84
2023/01/02 02:12:28;;;;;;;3.63;2.00;;;;;;;14.49;52.61;100013.16;10469669;28;20109;-83
2023/01/02 02:17:48;;;;;;;3.13;1.42;;;;;;;15.20;50.38;100011.38;10469424;28;20033;-82
2023/01/02 02:23:17;;;;;;;2.53;1.65;;;;;;;15.14;50.53;100003.75;10451869;28;20049;-83
2023/01/02 02:28:39;;;;;;;2.53;1.83;;;;;;;14.87;51.17;100008.63;10452282;28;20578;-82
2023/01/02 02:33:55;;;;;;;2.78;1.88;;;;;;;14.97;50.74;99991.38;10467008;28;20068;-83
2023/01/02 02:39:26;;;;;;;3.30;1.70;;;;;;;14.87;50.47;100008.63;10466652;28;20041;-83
2023/01/02 02:45:02;;;;;;;5.20;1.90;;;;;;;14.88;50.14;100000.63;10467518;28;20036;-82
2023/01/02 02:50:07;;;;;;;;;;;;;;;14.52;53.12;99991.84;10467676;28;20028;-82
2023/01/02 02:55:17;;;;;;;8.48;4.72;;;;;;;14.18;56.18;99992.59;10466196;28;19992;-81
2023/01/02 03:00:22;;;;;;;6.30;4.55;;;;;;;13.89;57.70;99986.84;10466935;28;20037;-82
2023/01/02 03:05:38;;;;;;;9.02;5.82;;;;;;;13.89;58.14;99986.84;10467009;28;20021;-81
2023/01/02 03:10:55;;;;;;;7.40;5.50;;;;;;;13.56;59.18;99981.34;10449588;28;20025;-82
2023/01/02 03:16:22;;;;;;;6.88;5.38;;;;;;;13.24;60.18;99982.75;10449775;28;20097;-81
2023/01/02 03:21:29;;;;;;;;;;;;;;;13.18;60.74;99980.34;10467361;28;20053;-82
2023/01/02 03:26:35;;;;;;;7.35;5.50;;;;;;;13.04;62.06;99979.16;10466949;28;19921;-82
2023/01/02 03:31:39;;;;;;;7.30;6.47;;;;;;;13.27;60.95;99972.91;10466661;28;20033;-81
2023/01/02 03:36:44;;;;;;;8.77;6.68;;;;;;;13.26;61.33;99963.28;10466104;28;20042;-82
2023/01/02 03:41:56;;;;;;;8.43;5.63;;;;;;;13.18;61.35;99938.97;10449339;28;20033;-83
2023/01/02 03:47:08;;;;;;;6.13;3.22;;;;;;;12.99;59.24;99931.00;10453399;28;20041;-84
2023/01/02 03:52:10;;;;;;;3.15;1.50;;;;;;;13.51;55.64;99920.81;10472932;23;20363;-80
2023/01/02 03:57:26;;;;;;;1.60;1.38;;;;;;;14.07;52.70;99917.28;10466247;28;20429;-80
2023/01/02 04:02:39;;;;;;;2.90;1.10;;;;;;;14.41;51.61;99914.78;10464940;28;20047;-80
2023/01/02 04:07:55;;;;;;;1.70;1.38;;;;;;;14.33;51.79;99923.94;10467059;28;20041;-82
2023/01/02 04:13:02;;;;;;;2.43;1.30;;;;;;;14.31;51.77;99924.97;10467334;28;20072;-81
2023/01/02 04:18:10;;;;;;;2.42;0.98;;;;;;;14.32;51.68;99916.94;10467753;28;20438;-81
2023/01/02 04:23:28;;;;;;;4.68;4.13;;;;;;;13.84;56.05;99928.09;10464903;28;20049;-80
2023/01/02 04:28:32;;;;;;;6.40;5.65;;;;;;;13.59;57.72;99926.59;10465619;28;20091;-81
2023/01/02 04:33:38;;;;;;;7.00;5.03;;;;;;;13.30;58.45;99919.13;10463743;28;20079;-81
2023/01/02 04:38:42;;;;;;;6.70;5.50;;;;;;;13.08;59.66;99921.81;10465586;28;20060;-80
2023/01/02 04:43:43;;;;;;;6.60;5.75;;;;;;;12.84;60.35;99921.13;10462569;28;20056;-80
2023/01/02 04:48:45;;;;;;;7.20;5.85;;;;;;;12.65;61.05;99921.03;10471169;28;20495;-80
2023/01/02 04:53:48;;;;;;;12.52;6.40;;;;;;;12.56;61.94;99922.25;10470433;28;20038;-81
2023/01/02 04:58:50;;;;;;;6.70;5.38;;;;;;;12.47;62.25;99927.06;10470351;28;20045;-81
2023/01/02 05:03:51;;;;;;;6.18;4.63;;;;;;;12.54;60.66;99923.25;10468375;28;20049;-81
2023/01/02 05:08:53;;;;;;;6.10;5.38;;;;;;;12.54;60.84;99921.47;10465481;28;20140;-81
2023/01/02 05:13:55;;;;;;;7.88;6.97;;;;;;;12.34;61.92;99927.56;10466246;28;20083;-81
2023/01/02 05:18:57;;;;;;;8.52;7.03;;;;;;;12.14;63.17;99939.84;10465670;28;20155;-80
2023/01/02 05:24:00;;;;;;;9.15;6.85;;;;;;;12.41;62.50;99943.16;10467532;28;20048;-80
2023/01/02 05:29:02;;;;;;;7.88;6.82;;;;;;;11.95;63.55;99948.44;10468296;28;20056;-80
2023/01/02 05:34:04;;;;;;;10.43;7.00;;;;;;;11.97;63.52;99951.88;10469115;28;20128;-81
2023/01/02 05:39:13;;;;;;;8.35;7.40;;;;;;;11.94;63.81;99949.38;10475531;28;20060;-80
2023/01/02 05:44:14;;;;;;;7.65;6.40;;;;;;;11.89;64.07;99961.00;10495148;28;20068;-80
2023/01/02 05:49:16;;;;;;;7.72;6.93;;;;;;;12.03;64.13;99959.53;10474170;28;20119;-82
2023/01/02 05:54:18;;;;;;;10.57;7.38;;;;;;;11.93;64.64;99952.91;10456970;28;20052;-81
2023/01/02 05:59:19;;;;;;;10.02;7.28;;;;;;;11.85;64.86;99944.44;10476519;28;20079;-80
2023/01/02 06:04:21;;;;;;;7.35;6.45;;;;;;;11.81;64.94;99953.34;10458810;28;20076;-82
2023/01/02 06:09:23;;;;;;;7.47;6.75;;;;;;;12.02;63.35;99956.97;10472364;28;20047;-81
2023/01/02 06:14:24;;;;;;;8.07;6.50;;;;;;;12.16;62.34;99954.66;10468713;28;20048;-80
2023/01/02 06:19:26;;;;;;;7.15;5.28;;;;;;;12.19;61.73;99957.19;10492501;28;20033;-80
2023/01/02 06:24:28;;;;;;;4.47;2.80;;;;;;;12.84;57.97;99958.06;10500291;28;20045;-80
2023/01/02 06:29:29;;;;;;;3.30;1.80;;;;;;;14.04;53.20;99966.81;10475595;28;20041;-80
2023/01/02 06:34:31;;;;;;;5.25;4.75;;;;;;;13.82;55.21;99964.31;10477825;28;20045;-81
2023/01/02 06:39:33;;;;;;;6.13;5.53;;;;;;;12.97;58.33;99964.53;10471645;28;20036;-80
2023/01/02 06:44:34;;;;;;;8.50;6.38;;;;;;;12.67;59.98;99961.38;10472335;28;20048;-80
2023/01/02 06:49:36;;;;;;;7.60;6.80;;;;;;;12.17;62.00;99963.41;10470590;28;20049;-81
2023/01/02 06:54:38;;;;;;;9.35;6.55;;;;;;;12.11;62.51;99969.78;10473059;28;20090;-80
2023/01/02 06:59:39;;;;;;;7.32;6.63;;;;;;;12.06;62.97;99971.75;10492300;28;20037;-80
2023/01/02 07:04:41;;;;;;;8.63;7.78;;;;;;;11.61;64.79;99976.03;10474517;28;20048;-80
2023/01/02 07:09:43;;;;;;;8.93;8.02;;;;;;;11.48;65.27;99972.13;10468099;28;20045;-80
2023/01/02 07:14:46;;;;;;;10.13;9.23;;;;;;;11.36;65.85;99977.84;10470816;28;20045;-81
2023/01/02 07:19:48;;;;;;;9.68;8.88;;;;;;;11.39;66.32;99997.94;10470748;28;20045;-81
2023/01/02 07:24:55;;;;;;;10.00;8.95;;;;;;;11.25;66.68;100001.06;10472592;28;20051;-84
2023/01/02 07:30:10;;;;;;;10.63;9.52;;;;;;;11.16;67.61;100012.75;10454418;28;20056;-84
2023/01/02 07:35:14;;;;;;;11.18;10.18;;;;;;;10.88;69.09;100019.84;10452741;28;20075;-82
2023/01/02 07:40:16;;;;;;;11.23;10.13;;;;;;;10.72;70.18;100020.38;10465643;28;20049;-81
2023/01/02 07:45:17;;;;;;;15.98;11.82;;;;;;;10.91;69.29;100030.28;10466937;28;20033;-81
2023/01/02 07:50:19;;;;;;;11.30;10.05;;;;;;;10.68;70.75;100029.25;10466617;28;20040;-82
2023/01/02 07:55:21;;;;;;;11.95;10.65;;;;;;;10.60;70.93;100024.25;10466893;28;20053;-82
2023/01/02 08:00:23;;;;;;;12.48;11.25;;;;;;;10.69;70.88;100033.59;10466263;28;20080;-82
2023/01/02 08:05:24;;;;;;;11.38;10.18;;;;;;;10.97;69.16;100044.06;10465950;28;20043;-83
2023/01/02 08:10:26;;;;;;;11.05;9.95;;;;;;;10.66;70.50;100041.56;10454640;28;20044;-81
2023/01/02 08:15:28;;;;;;;12.25;10.70;;;;;;;10.87;69.67;100047.91;10506411;28;20036;-82
2023/01/02 08:20:33;;;;;;;11.45;10.30;;;;;;;10.88;69.69;100059.28;10504771;28;20068;-83
2023/01/02 08:25:35;;;;;;;11.73;10.32;;;;;;;10.99;69.49;100060.66;10475703;28;20143;-82
2023/01/02 08:30:41;;;;;;;11.63;10.43;;;;;;;10.99;69.25;100063.31;10465791;28;20144;-82
2023/01/02 08:35:43;;;;;;;12.20;11.10;;;;;;;10.95;69.19;100061.69;10458892;28;20045;-82
2023/01/02 08:40:44;;;;;;;11.48;10.38;;;;;;;11.12;68.36;100063.75;10474200;28;20044;-83
2023/01/02 08:45:46;;;;;;;13.43;11.25;;;;;;;10.86;69.72;100072.50;10476807;28;20041;-83
2023/01/02 08:50:49;;;;;;;11.75;10.40;;;;;;;10.93;68.99;100066.13;10476564;28;20106;-84
2023/01/02 08:55:50;;;;;;;11.45;9.85;;;;;;;10.98;68.82;100074.75;10475485;28;20041;-83
2023/01/02 09:00:53;;;;;;;14.45;9.52;;;;;;;10.95;69.33;100066.09;10477502;28;20045;-84
2023/01/02 09:05:55;;;;;;;10.60;9.50;;;;;;;10.77;70.08;100078.91;10479153;28;20045;-82
2023/01/02 09:10:57;;;;;;;10.98;9.98;;;;;;;10.84;70.31;100074.31;10478352;28;20143;-82
2023/01/02 09:15:58;;;;;;;13.88;9.80;;;;;;;10.77;70.38;100080.69;10476484;28;20045;-82
2023/01/02 09:21:00;;;;;;;11.32;10.15;;;;;;;10.85;70.19;100070.78;10456860;28;20045;-82
2023/01/02 09:26:04;;;;;;;17.15;10.48;;;;;;;10.99;69.28;100055.41;10478692;28;20041;-81
2023/01/02 09:31:08;;;;;;;11.75;10.27;;;;;;;11.16;68.30;100075.91;10473383;28;20072;-81
2023/01/02 09:36:15;;;;;;;13.18;10.43;;;;;;;11.13;68.40;100083.88;10482696;28;20076;-81
2023/01/02 09:41:20;;;;;;;10.93;9.82;;;;;;;11.16;68.84;100090.84;10472769;28;20044;-82
2023/01/02 09:46:46;;;;;;;10.73;9.43;;;;;;;11.29;67.90;100092.13;10470946;28;20040;-83
2023/01/02 09:51:49;;;;;;;10.30;9.40;;;;;;;11.23;68.30;100087.06;10493966;22;20095;-73
2023/01/02 09:57:13;;;;;;;10.88;9.60;;;;;;;11.11;68.63;100077.78;10460823;28;20509;-73
2023/01/02 10:02:39;;;;;;;8.80;7.93;;;;;;;11.47;67.31;100083.59;10463325;28;20041;-73
2023/01/02 10:07:56;;;;;;;12.73;9.10;;;;;;;11.19;67.59;100070.50;10459896;28;20041;-73
2023/01/02 10:13:16;;;;;;;;;;;;;;;11.24;67.68;100058.06;10459058;28;20045;-73
2023/01/02 10:18:28;;;;;;;8.70;7.97;;;;;;;11.35;66.82;100073.50;10459778;28;19920;-73
2023/01/02 10:23:47;;;;;;;9.30;8.40;;;;;;;11.44;66.47;100069.69;10460407;28;20106;-74
2023/01/02 10:28:58;;;;;;;8.05;7.25;;;;;;;11.30;67.42;100068.41;10458128;28;20570;-73
2023/01/02 10:34:02;;;;;;;8.43;7.57;;;;;;;11.19;67.80;100056.50;10459557;28;20529;-74
2023/01/02 10:39:07;;;;;;;8.60;7.88;;;;;;;11.14;68.64;100059.28;10458407;28;20045;-73
2023/01/02 10:44:18;;;;;;;9.30;8.50;;;;;;;11.64;66.69;100054.03;10463002;28;20048;-73
2023/01/02 10:49:22;;;;;;;8.30;7.57;;;;;;;11.65;66.13;100053.16;10457667;28;20144;-73
2023/01/02 10:54:23;;;;;;;9.07;7.53;;;;;;;11.47;67.36;100048.53;10458413;28;20457;-74
2023/01/02 10:59:28;;;;;;;10.05;7.90;;;;;;;11.75;66.15;100037.88;10458225;28;20063;-74
2023/01/02 11:04:29;;;;;;;12.32;8.65;;;;;;;11.57;67.18;100028.84;10457847;28;20041;-74
2023/01/02 11:09:35;;;;;;;9.10;8.20;;;;;;;11.76;66.06;100021.13;10459779;28;20051;-73
2023/01/02 11:14:37;;;;;;;9.55;7.90;;;;;;;11.79;65.61;100036.84;10456724;28;20041;-73
2023/01/02 11:19:45;;;;;;;9.00;8.13;;;;;;;11.50;66.78;100019.44;10456426;28;20414;-73
2023/01/02 11:25:15;;;;;;;9.80;8.57;;;;;;;11.60;66.26;100019.09;10457639;28;20383;-73
2023/01/02 11:30:42;;;;;;;8.70;7.80;;;;;;;11.52;66.99;100021.13;10459143;28;20124;-73
2023/01/02 11:35:50;;;;;;;8.00;7.32;;;;;;;11.82;65.59;100029.72;10456969;28;20040;-72
2023/01/02 11:40:52;;;;;;;8.75;7.68;;;;;;;11.83;65.52;100010.38;10438850;28;20044;-73
2023/01/02 11:45:53;;;;;;;8.25;7.50;;;;;;;11.79;67.02;100018.41;10457485;28;20063;-73
2023/01/02 11:50:56;;;;;;;8.65;7.85;;;;;;;11.69;66.24;100014.41;10457217;28;20100;-74
2023/01/02 11:56:11;;;;;;;9.77;7.53;;;;;;;11.37;67.75;100021.66;10462041;28;20045;-73
2023/01/02 12:01:46;;;;;;;7.95;7.32;;;;;;;11.91;66.06;100028.53;10465088;28;20397;-73
2023/01/02 12:06:51;;;;;;;9.50;7.53;;;;;;;12.07;65.23;100023.53;10465672;28;20099;-73
2023/01/02 12:12:13;;;;;;;7.85;7.05;;;;;;;12.24;65.06;100025.50;10467549;28;20585;-72
2023/01/02 12:17:57;;;;;;;8.43;7.40;;;;;;;12.70;63.01;100021.03;10465736;28;20120;-72
2023/01/02 12:23:31;;;;;;;7.53;6.50;;;;;;;12.66;63.11;100014.19;10463328;28;20124;-73
2023/01/02 12:28:42;;;;;;;7.47;6.35;;;;;;;12.93;61.66;100013.06;10464187;28;20051;-73
2023/01/02 12:34:06;;;;;;;8.50;6.80;;;;;;;13.17;60.86;99997.97;10466815;28;20045;-73
2023/01/02 12:39:40;;;;;;;8.07;7.30;;;;;;;12.77;61.77;100001.41;10464764;28;20045;-73
2023/01/02 12:44:51;;;;;;;10.68;7.45;;;;;;;12.47;63.32;99999.09;10463544;28;20072;-73
2023/01/02 12:50:20;;;;;;;7.75;7.05;;;;;;;12.60;63.66;99994.19;10462938;28;20048;-73
2023/01/02 12:55:51;;;;;;;6.55;6.00;;;;;;;12.58;63.35;100009.22;10465339;28;20037;-75
2023/01/02 13:01:25;;;;;;;8.30;7.45;;;;;;;12.48;64.00;100008.72;10460723;28;20053;-73
2023/01/02 13:06:38;;;;;;;7.85;5.90;;;;;;;12.82;62.16;100004.72;10461116;28;20045;-72
2023/01/02 13:12:09;;;;;;;8.10;7.35;;;;;;;12.46;64.02;99989.47;10461785;28;20037;-72
2023/01/02 13:17:40;;;;;;;6.43;5.78;;;;;;;12.91;61.87;100001.69;10463186;28;20044;-73
2023/01/02 13:22:53;;;;;;;7.40;6.32;;;;;;;12.53;62.96;100000.66;10459992;28;20490;-73
2023/01/02 13:27:58;;;;;;;8.98;6.57;;;;;;;12.40;63.74;100008.19;10461774;28;20131;-74
2023/01/02 13:33:04;;;;;;;10.07;6.13;;;;;;;12.45;64.08;100014.13;10461036;28;20049;-74
2023/01/02 13:38:09;;;;;;;8.15;6.35;;;;;;;12.49;64.30;100030.69;10462357;28;20052;-74
2023/01/02 13:43:17;;;;;;;6.43;5.80;;;;;;;12.58;63.66;100027.69;10463239;28;20045;-73
2023/01/02 13:48:33;;;;;;;8.27;5.97;;;;;;;12.51;63.02;100020.94;10462246;28;20059;-73
2023/01/02 13:53:36;;;;;;;7.90;6.65;;;;;;;12.31;64.12;100030.50;10460605;28;20474;-73
2023/01/02 13:58:42;;;;;;;7.38;6.22;;;;;;;12.20;64.73;100045.00;10460515;28;20060;-73
2023/01/02 14:03:44;;;;;;;6.50;5.90;;;;;;;12.14;65.27;100037.34;10461412;28;20094;-73
2023/01/02 14:09:22;;;;;;;7.60;6.93;;;;;;;12.32;64.74;100044.53;10459938;28;20041;-73
2023/01/02 14:14:41;;;;;;;8.13;6.88;;;;;;;12.25;65.63;100043.91;10414440;28;20068;-74
2023/01/02 14:19:44;;;;;;;11.50;6.95;;;;;;;12.32;65.28;100049.81;10413548;28;20083;-72
2023/01/02 14:24:52;;;;;;;8.13;6.50;;;;;;;12.19;66.03;100052.03;10416725;28;20044;-73
2023/01/02 14:30:04;;;;;;;8.00;7.30;;;;;;;12.10;66.11;100055.03;10398271;28;20053;-74
2023/01/02 14:35:14;;;;;;;8.57;6.75;;;;;;;12.19;66.41;100070.50;10414913;28;20423;-73
2023/01/02 14:40:22;;;;;;;8.55;4.88;;;;;;;12.32;63.07;100065.63;10397510;28;20179;-73
2023/01/02 14:45:27;;;;;;;6.55;2.30;;;;;;;12.69;58.33;100086.13;10407547;28;20087;-72
2023/01/02 14:50:32;;;;;;;7.15;2.08;;;;;;;13.36;55.60;100064.91;10441786;28;20045;-72
2023/01/02 14:55:38;;;;;;;9.73;1.80;;;;;;;13.67;54.01;100070.66;10458036;28;20045;-73
2023/01/02 15:00:46;;;;;;;3.88;1.58;;;;;;;14.29;50.96;100062.50;10458951;28;20045;-73
2023/01/02 15:05:55;;;;;;;7.20;2.35;;;;;;;14.29;51.26;100069.59;10459395;28;20044;-73
2023/01/02 15:13:02;;;;;;;4.28;1.90;;;;;;;14.37;51.04;100078.03;10458730;28;20139;-75
2023/01/02 15:16:23;;;;;;;9.60;2.10;;;;;;;14.34;50.70;100076.41;10456691;28;20584;-73
2023/01/02 15:21:28;;;;;;;5.32;1.98;;;;;;;14.91;49.26;100078.16;10456141;28;20055;-72
2023/01/02 15:26:35;;;;;;;6.35;1.90;;;;;;;14.87;49.11;100083.59;10458845;28;20069;-74
2023/01/02 15:31:38;;;;;;;8.02;3.35;;;;;;;14.67;49.59;100096.06;10458230;28;20041;-72
2023/01/02 15:36:41;;;;;;;5.95;2.50;;;;;;;14.75;49.25;100107.16;10462151;28;20041;-72
2023/01/02 15:41:51;;;;;;;3.50;1.90;;;;;;;14.64;49.67;100121.72;10457346;28;20410;-73
2023/01/02 15:46:53;;;;;;;5.03;2.05;;;;;;;14.92;48.79;100116.91;10458758;28;20037;-73
2023/01/02 15:51:57;;;;;;;5.47;1.77;;;;;;;14.89;48.98;100120.56;10472335;22;20044;-73
2023/01/02 15:57:13;;;;;;;5.30;2.35;;;;;;;14.68;49.93;100134.81;10457814;28;20458;-73
2023/01/02 16:02:42;;;;;;;4.93;1.88;;;;;;;14.68;49.54;100125.09;10458462;28;20059;-73
2023/01/02 16:07:56;;;;;;;6.10;2.40;;;;;;;14.54;50.02;100112.50;10457973;28;20041;-73
2023/01/02 16:13:03;;;;;;;6.78;2.03;;;;;;;14.42;50.67;100131.56;10457758;28;20128;-73
2023/01/02 16:18:04;;;;;;;4.13;1.88;;;;;;;14.58;49.74;100147.63;10457157;28;20494;-73
2023/01/02 16:23:13;;;;;;;7.22;2.63;;;;;;;14.71;49.97;100154.06;10459028;28;20039;-74
2023/01/02 16:28:24;;;;;;;8.00;2.05;;;;;;;14.54;50.17;100160.13;10458712;28;20098;-73
2023/01/02 16:33:37;;;;;;;4.45;1.75;;;;;;;14.57;50.12;100165.28;10458651;28;20051;-73
2023/01/02 16:38:58;;;;;;;3.65;1.70;;;;;;;14.29;51.09;100163.00;10458977;28;20037;-73
2023/01/02 16:44:02;;;;;;;4.38;1.48;;;;;;;14.43;50.78;100180.03;10463780;28;20048;-73
2023/01/02 16:49:04;;;;;;;7.47;1.85;;;;;;;14.45;51.00;100186.97;10467102;28;20120;-74
2023/01/02 16:54:06;;;;;;;6.03;2.05;;;;;;;14.59;50.83;100197.81;10464854;28;20506;-74
2023/01/02 16:59:08;;;;;;;7.22;2.40;;;;;;;14.17;52.32;100182.06;10466450;28;20473;-73
2023/01/02 17:04:13;;;;;;;8.20;1.98;;;;;;;14.62;50.91;100195.03;10465433;28;20048;-72
2023/01/02 17:09:15;;;;;;;5.38;2.10;;;;;;;14.52;51.71;100200.78;10466879;28;20044;-73
2023/01/02 17:14:17;;;;;;;3.55;1.85;;;;;;;14.46;51.70;100204.53;10464898;28;20036;-72
2023/01/02 17:19:20;;;;;;;5.35;2.30;;;;;;;14.18;53.29;100214.66;10464829;28;20413;-72
2023/01/02 17:24:22;;;;;;;9.60;2.17;;;;;;;14.43;52.16;100219.69;10464631;28;20048;-75
2023/01/02 17:29:23;;;;;;;7.65;2.60;;;;;;;14.38;52.05;100220.75;10464077;28;20045;-73
2023/01/02 17:34:25;;;;;;;6.07;2.00;;;;;;;14.43;52.01;100215.25;10462200;28;20099;-72
2023/01/02 17:39:27;;;;;;;4.68;2.40;;;;;;;14.24;53.06;100217.00;10463532;28;20068;-73
2023/01/02 17:44:29;;;;;;;7.53;2.85;;;;;;;14.24;52.75;100228.44;10463565;28;20041;-73
2023/01/02 17:49:30;;;;;;;6.18;1.95;;;;;;;13.92;54.38;100227.19;10462121;28;20486;-73
2023/01/02 17:54:32;;;;;;;4.75;1.90;;;;;;;13.75;54.50;100227.91;10463855;28;20095;-73
2023/01/02 17:59:34;;;;;;;8.10;3.15;;;;;;;13.78;54.66;100235.69;10463435;28;20041;-72
2023/01/02 18:04:38;;;;;;;6.55;2.15;;;;;;;14.04;53.35;100223.19;10463189;28;20041;-73
2023/01/02 18:09:41;;;;;;;2.78;1.85;;;;;;;14.25;52.70;100230.16;10461593;28;20512;-73
2023/01/02 18:15:09;;;;;;;5.30;2.22;;;;;;;14.05;53.92;100217.81;10459464;28;20068;-72
2023/01/02 18:20:17;;;;;;;5.18;2.17;;;;;;;14.02;53.72;100222.38;10461251;28;20033;-72
2023/01/02 18:25:25;;;;;;;5.75;2.42;;;;;;;13.90;54.57;100223.78;10458572;28;20388;-73
2023/01/02 18:30:27;;;;;;;7.53;2.47;;;;;;;14.01;53.70;100231.22;10458333;28;20124;-73
2023/01/02 18:35:31;;;;;;;6.45;2.70;;;;;;;14.19;53.23;100226.94;10460431;28;20048;-73
2023/01/02 18:40:53;;;;;;;4.90;1.58;;;;;;;14.02;54.48;100233.78;10458338;28;20037;-73
2023/01/02 18:45:57;;;;;;;5.18;1.83;;;;;;;14.04;54.78;100224.03;10459708;28;20048;-72
2023/01/02 18:51:01;;;;;;;4.30;1.75;;;;;;;14.08;54.94;100222.97;10458970;28;20417;-73
2023/01/02 18:56:14;;;;;;;5.57;1.95;;;;;;;14.09;54.72;100227.34;10459034;28;20049;-73
2023/01/02 19:01:32;;;;;;;6.25;1.45;;;;;;;13.94;55.82;100232.41;10457620;28;20140;-73
2023/01/02 19:06:44;;;;;;;3.70;1.60;;;;;;;14.04;55.57;100223.19;10456426;28;20395;-73
2023/01/02 19:17:31;;;;;;;4.32;1.55;;;;;;;13.87;56.09;100231.81;10439333;28;20053;-73
2023/01/02 19:22:33;;;;;;;5.82;2.67;;;;;;;13.91;56.05;100232.56;10458739;28;20033;-74
2023/01/02 19:27:37;;;;;;;6.43;2.15;;;;;;;13.94;55.41;100225.31;10458297;28;20045;-74
2023/01/02 19:32:38;;;;;;;4.90;1.95;;;;;;;13.84;56.04;100229.28;10459077;28;20044;-73
2023/01/02 19:37:42;;;;;;;4.75;2.05;;;;;;;13.78;56.36;100234.84;10458203;28;20414;-73
2023/01/02 19:42:45;;;;;;;6.45;2.28;;;;;;;13.93;55.53;100239.47;10458066;28;20446;-74
2023/01/02 19:47:48;;;;;;;6.72;2.08;;;;;;;13.90;55.90;100236.97;10458409;28;20048;-73
2023/01/02 19:52:50;;;;;;;6.28;2.00;;;;;;;13.87;56.96;100234.47;10457206;28;20045;-73
2023/01/02 19:57:52;;;;;;;6.53;2.30;;;;;;;13.74;57.71;100254.38;10458918;28;20043;-73
2023/01/02 20:02:54;;;;;;;6.32;1.83;;;;;;;13.77;58.12;100255.13;10457305;28;20060;-74
2023/01/02 20:08:01;;;;;;;4.38;1.88;;;;;;;13.83;58.13;100270.72;10458594;28;20047;-73
2023/01/02 20:13:02;;;;;;;4.75;1.67;;;;;;;13.54;61.29;100295.66;10459195;28;20055;-73
2023/01/02 20:18:04;;;;;;;3.67;1.65;;;;;;;13.11;66.93;100309.66;10464864;28;20041;-73
2023/01/02 20:23:09;;;;;;;4.20;2.28;;;;;;;12.45;75.78;100361.28;10464945;28;20488;-73
2023/01/02 20:28:11;;;;;;;4.85;2.47;;;;;;;12.01;83.59;100356.56;10465680;28;20049;-73
2023/01/02 20:33:13;;;;;;;9.48;2.97;;;;;;;11.57;91.39;100379.88;10464721;28;20402;-73
2023/01/02 20:38:15;;;;;;;2.05;1.25;;;;;;;11.23;92.81;100413.34;10463781;28;20044;-72
2023/01/02 20:43:16;;;;;;;1.77;1.10;;;;;;;10.68;92.94;100431.50;10465258;28;20409;-73
2023/01/02 20:48:18;;;;;;;0.60;0.60;;;;;;;10.16;96.83;100440.63;10465691;28;20052;-74
2023/01/02 20:53:20;;;;;;;1.02;0.45;;;;;;;10.18;100.00;100461.59;10465690;28;20087;-74
2023/01/02 20:58:22;;;;;;;1.65;0.80;;;;;;;9.98;100.00;100465.56;10463902;28;20049;-73
2023/01/02 21:03:24;;;;;;;2.55;0.70;;;;;;;10.00;100.00;100462.88;10464603;28;20041;-72
2023/01/02 21:08:27;;;;;;;0.88;0.43;;;;;;;9.88;100.00;100469.28;10464303;28;20045;-73
2023/01/02 21:13:29;;;;;;;1.27;0.40;;;;;;;9.77;100.00;100487.88;10462511;28;20080;-74
2023/01/02 21:18:34;;;;;;;0.70;0.60;;;;;;;9.75;100.00;100508.06;10462790;28;20566;-74
2023/01/02 21:23:38;;;;;;;1.55;0.80;;;;;;;9.68;100.00;100522.22;10462005;28;20556;-73
2023/01/02 21:28:42;;;;;;;2.47;1.00;;;;;;;9.69;100.00;100509.94;10462015;28;20410;-73
2023/01/02 21:33:45;;;;;;;1.25;0.90;;;;;;;9.77;100.00;100535.16;10463198;28;20045;-74
2023/01/02 21:38:47;;;;;;;1.70;1.20;;;;;;;9.65;100.00;100543.28;10464908;28;20498;-72
2023/01/02 21:43:49;;;;;;;1.33;1.13;;;;;;;9.58;100.00;100541.66;10461989;28;20045;-73
2023/01/02 21:48:51;;;;;;;2.67;1.10;;;;;;;9.59;100.00;100556.50;10462657;28;20040;-72
2023/01/02 21:53:53;;;;;;;0.80;0.80;;;;;;;9.65;100.00;100563.41;10473398;22;20045;-71
2023/01/02 21:58:56;;;;;;;1.92;0.88;;;;;;;9.62;100.00;100558.22;10460703;28;20083;-69
2023/01/02 22:03:58;;;;;;;5.47;1.05;;;;;;;9.66;100.00;100563.38;10460153;28;20127;-68
2023/01/02 22:09:00;;;;;;;0.77;0.73;;;;;;;9.54;100.00;100564.47;10441946;28;20107;-68
2023/01/02 22:14:02;;;;;;;1.00;0.65;;;;;;;9.52;100.00;100575.91;10459826;28;20128;-69
2023/01/02 22:19:04;;;;;;;0.88;0.85;;;;;;;9.48;100.00;100588.22;10457966;28;20053;-68
2023/01/02 22:24:06;;;;;;;0.63;0.63;;;;;;;9.44;100.00;100594.41;10459279;28;20037;-69
2023/01/02 22:29:08;;;;;;;0.50;0.50;;;;;;;9.42;100.00;100597.94;10459103;28;20044;-69
2023/01/02 22:34:10;;;;;;;0.98;0.70;;;;;;;9.62;100.00;100610.72;10458858;28;20041;-69
2023/01/02 22:39:13;;;;;;;1.80;0.80;;;;;;;9.66;100.00;100610.63;10458387;28;20044;-69
2023/01/02 22:44:30;;;;;;;0.95;0.85;;;;;;;9.63;100.00;100617.69;10459496;28;20047;-69
2023/01/02 22:49:34;;;;;;;1.73;0.80;;;;;;;9.74;100.00;100629.75;10458040;28;20528;-70
2023/01/02 22:54:36;;;;;;;0.82;0.75;;;;;;;9.75;100.00;100630.59;10458094;28;20048;-70
2023/01/02 22:59:39;;;;;;;1.17;1.02;;;;;;;9.65;100.00;100637.78;10458273;28;20514;-68
2023/01/02 23:04:41;;;;;;;1.13;0.90;;;;;;;9.70;100.00;100642.94;10458590;28;20044;-69
2023/01/02 23:09:42;;;;;;;2.05;0.80;;;;;;;9.96;98.57;100647.69;10457400;28;20072;-69
2023/01/02 23:14:45;;;;;;;0.75;0.75;;;;;;;9.99;96.83;100660.75;10457043;28;20056;-69
2023/01/02 23:19:47;;;;;;;0.77;0.77;;;;;;;9.91;96.93;100653.03;10457552;28;20095;-69
2023/01/02 23:24:48;;;;;;;1.10;0.75;;;;;;;10.00;96.13;100663.34;10456800;28;20510;-69
2023/01/02 23:29:50;;;;;;;1.83;0.80;;;;;;;9.82;97.64;100653.19;10456720;28;20045;-69
2023/01/02 23:34:52;;;;;;;1.67;0.90;;;;;;;9.89;96.85;100651.34;10456919;28;20037;-69